Time;durP1;ratioP1;P1;durP2;ratioP2;P2;SDS_P1;SDS_P2;PMS_P1;PMS_P2;Temp;Humidity;BMP_temperature;BMP_pressure;BME280_temperature;BME280_humidity;BME280_pressure;Samples;Min_cycle;Max_cycle;Signal;HPM_P1;HPM_P2
2024/03/06 04:17:57;;;;;;;23.60;13.00;;;10.80;91.60;;;;;;4915064;27;20040;-69
2024/03/06 04:20:22;;;;;;;21.98;13.80;;;10.70;91.50;;;;;;4938046;29;20032;-69
2024/03/06 04:22:50;;;;;;;24.23;14.20;;;10.70;91.50;;;;;;4937824;29;20036;-71
2024/03/06 04:25:16;;;;;;;21.73;12.98;;;10.70;91.50;;;;;;4938445;29;20098;-69
2024/03/06 04:27:42;;;;;;;22.13;13.77;;;10.70;91.70;;;;;;4938110;29;20044;-69
2024/03/06 04:30:09;;;;;;;20.92;12.15;;;10.70;91.60;;;;;;4936570;29;20039;-69
2024/03/06 04:32:35;;;;;;;22.80;12.30;;;10.70;91.50;;;;;;4937607;29;20134;-69
2024/03/06 04:35:00;;;;;;;21.35;12.50;;;10.70;91.50;;;;;;4938151;29;20138;-69
2024/03/06 04:37:30;;;;;;;25.63;13.70;;;10.70;91.50;;;;;;4937803;29;20038;-70
2024/03/06 04:39:56;;;;;;;24.08;12.75;;;10.70;91.40;;;;;;4937747;29;20028;-68
2024/03/06 04:42:22;;;;;;;26.50;13.60;;;10.70;91.50;;;;;;4937955;29;20145;-68
2024/03/06 04:44:48;;;;;;;22.20;11.68;;;10.70;91.60;;;;;;4937699;29;20031;-69
2024/03/06 04:47:13;;;;;;;20.38;11.77;;;10.70;91.50;;;;;;4936504;29;20036;-70
2024/03/06 04:49:39;;;;;;;22.25;12.57;;;10.80;91.50;;;;;;4937808;29;20408;-69
2024/03/06 04:52:05;;;;;;;22.25;12.02;;;10.80;91.40;;;;;;4937477;29;20046;-69
2024/03/06 04:54:30;;;;;;;21.63;11.73;;;10.80;91.40;;;;;;4937536;29;20039;-69
2024/03/06 04:56:56;;;;;;;19.55;11.90;;;10.90;91.50;;;;;;4937586;29;20040;-70
2024/03/06 04:59:22;;;;;;;21.63;11.68;;;10.90;91.40;;;;;;4937682;29;20507;-69
2024/03/06 05:01:48;;;;;;;23.85;12.00;;;10.90;91.20;;;;;;4937285;29;20039;-70
2024/03/06 05:04:13;;;;;;;21.45;12.50;;;10.80;91.40;;;;;;4936401;29;20039;-68
2024/03/06 05:06:39;;;;;;;27.05;11.40;;;10.80;91.50;;;;;;4937462;29;20096;-70
2024/03/06 05:09:05;;;;;;;18.70;10.70;;;10.80;91.30;;;;;;4937274;29;20036;-69
2024/03/06 05:11:32;;;;;;;19.40;11.80;;;10.90;91.40;;;;;;4937093;29;20476;-70
2024/03/06 05:13:59;;;;;;;22.55;11.30;;;10.90;91.30;;;;;;4937226;29;20440;-69
2024/03/06 05:16:26;;;;;;;23.13;11.07;;;11.00;91.30;;;;;;4935920;29;20043;-69
2024/03/06 05:18:52;;;;;;;22.17;11.75;;;11.00;91.20;;;;;;4936126;29;20028;-69
2024/03/06 05:21:18;;;;;;;27.10;12.40;;;11.00;91.30;;;;;;4937069;29;20042;-69
2024/03/06 05:23:44;;;;;;;18.15;10.95;;;10.90;91.30;;;;;;4937123;29;20456;-68
2024/03/06 05:26:10;;;;;;;24.98;12.52;;;10.80;91.30;;;;;;4937220;29;20036;-68
2024/03/06 05:28:35;;;;;;;23.15;12.10;;;10.80;91.30;;;;;;4919873;29;20078;-70
2024/03/06 05:31:13;;;;;;;27.10;11.60;;;10.70;91.40;;;;;;4936944;29;20047;-71
2024/03/06 05:33:39;;;;;;;24.35;11.68;;;10.70;91.50;;;;;;4920036;29;20031;-69
2024/03/06 05:36:05;;;;;;;18.55;10.65;;;10.70;91.30;;;;;;4935851;29;20032;-71
2024/03/06 05:38:30;;;;;;;19.77;10.27;;;10.60;91.50;;;;;;4937520;29;20027;-71
2024/03/06 05:40:56;;;;;;;27.08;11.90;;;10.60;91.40;;;;;;4937333;29;20040;-70
2024/03/06 05:43:22;;;;;;;21.50;10.60;;;10.60;91.30;;;;;;4937059;29;20106;-69
2024/03/06 05:45:47;;;;;;;17.17;10.82;;;10.60;91.40;;;;;;4935178;29;20099;-70
2024/03/06 05:48:14;;;;;;;18.20;10.85;;;10.60;91.30;;;;;;4936786;29;20507;-70
2024/03/06 05:50:40;;;;;;;27.83;11.48;;;10.60;91.30;;;;;;4936716;29;20110;-69
2024/03/06 05:53:06;;;;;;;16.75;10.20;;;10.60;91.50;;;;;;4936528;29;20519;-70
2024/03/06 05:55:32;;;;;;;17.83;11.02;;;10.60;91.30;;;;;;4936530;29;20531;-70
2024/03/06 05:57:59;;;;;;;18.20;9.85;;;10.60;91.30;;;;;;4936563;29;20036;-69
2024/03/06 06:00:24;;;;;;;20.83;10.55;;;10.60;91.20;;;;;;4936538;29;20043;-70
2024/03/06 06:02:50;;;;;;;18.90;9.38;;;10.60;91.30;;;;;;4936835;29;20036;-70
2024/03/06 06:05:19;;;;;;;24.73;11.38;;;10.60;91.30;;;;;;4936660;29;20472;-69
2024/03/06 06:07:45;;;;;;;22.70;10.60;;;10.60;91.20;;;;;;4936426;29;20028;-70
2024/03/06 06:10:11;;;;;;;19.98;10.75;;;10.70;91.30;;;;;;4936244;29;20444;-69
2024/03/06 06:12:37;;;;;;;18.27;8.95;;;10.90;91.20;;;;;;4936208;29;20098;-69
2024/03/06 06:15:03;;;;;;;17.42;9.07;;;11.00;91.20;;;;;;4936268;29;20036;-70
2024/03/06 06:17:29;;;;;;;23.48;9.93;;;11.20;91.00;;;;;;4935913;29;20092;-69
2024/03/06 06:19:54;;;;;;;23.67;9.10;;;11.20;90.80;;;;;;4935923;29;20036;-70
2024/03/06 06:22:20;;;;;;;25.15;8.77;;;11.30;90.80;;;;;;4935986;29;20032;-70
2024/03/06 06:24:46;;;;;;;25.67;9.35;;;11.30;90.90;;;;;;4935903;29;20050;-70
2024/03/06 06:27:11;;;;;;;19.52;9.32;;;11.30;91.10;;;;;;4936069;29;20064;-70
2024/03/06 06:29:37;;;;;;;23.52;9.93;;;11.20;91.00;;;;;;4935946;29;20036;-69
2024/03/06 06:32:03;;;;;;;18.20;9.10;;;11.30;91.00;;;;;;4935751;29;20043;-69
2024/03/06 06:34:28;;;;;;;18.00;9.02;;;11.40;91.00;;;;;;4935722;29;20122;-69
2024/03/06 06:36:54;;;;;;;23.08;10.75;;;11.80;90.90;;;;;;4935774;29;20043;-69
2024/03/06 06:39:20;;;;;;;24.73;9.07;;;12.10;90.50;;;;;;4935715;29;20102;-70
2024/03/06 06:41:45;;;;;;;28.65;9.80;;;12.80;89.90;;;;;;4935405;29;20132;-71
2024/03/06 06:44:11;;;;;;;22.90;10.27;;;13.70;88.00;;;;;;4935438;29;20044;-71
2024/03/06 06:46:38;;;;;;;29.95;12.95;;;14.40;86.00;;;;;;4935403;29;20455;-72
2024/03/06 06:49:04;;;;;;;24.65;11.43;;;15.10;83.50;;;;;;4935425;29;20046;-70
2024/03/06 06:51:30;;;;;;;25.73;9.25;;;15.90;81.60;;;;;;4934158;29;20047;-70
2024/03/06 06:53:55;;;;;;;24.15;10.95;;;16.70;79.90;;;;;;4935150;29;20494;-71
2024/03/06 06:56:23;;;;;;;26.58;9.48;;;17.30;78.40;;;;;;4934600;29;20080;-71
2024/03/06 06:58:49;;;;;;;27.00;9.00;;;17.40;77.30;;;;;;4935056;29;20035;-70
2024/03/06 07:01:18;;;;;;;19.40;8.73;;;17.50;77.20;;;;;;4935128;29;20083;-70
2024/03/06 07:03:44;;;;;;;19.35;8.30;;;17.70;76.90;;;;;;4934979;29;20043;-70
2024/03/06 07:06:10;;;;;;;25.60;7.78;;;17.80;76.40;;;;;;4935119;29;20034;-70
2024/03/06 07:08:37;;;;;;;18.02;7.97;;;18.60;75.60;;;;;;4935117;29;20042;-69
2024/03/06 07:11:03;;;;;;;20.05;7.15;;;19.30;74.30;;;;;;4935011;29;20055;-69
2024/03/06 07:13:28;;;;;;;19.38;6.82;;;20.10;72.50;;;;;;4935071;29;20032;-72
2024/03/06 07:15:54;;;;;;;24.77;6.78;;;20.60;70.90;;;;;;4934963;29;20095;-70
2024/03/06 07:18:20;;;;;;;27.15;6.75;;;21.10;69.80;;;;;;4934782;29;20044;-70
2024/03/06 07:20:47;;;;;;;18.30;5.68;;;21.70;69.00;;;;;;4934944;29;20027;-70
2024/03/06 07:23:12;;;;;;;20.17;5.68;;;22.00;67.80;;;;;;4934865;29;20543;-69
2024/03/06 07:25:39;;;;;;;21.25;6.18;;;22.30;66.90;;;;;;4934838;29;20035;-71
2024/03/06 07:28:05;;;;;;;21.90;5.35;;;22.40;66.00;;;;;;4933724;29;20499;-71
2024/03/06 07:30:30;;;;;;;20.95;5.60;;;22.60;65.20;;;;;;4934904;29;20071;-71
2024/03/06 07:32:57;;;;;;;24.00;6.22;;;22.40;64.60;;;;;;4934869;29;20070;-70
2024/03/06 07:35:23;;;;;;;22.17;5.45;;;20.80;66.00;;;;;;4935110;29;20444;-72
2024/03/06 07:37:49;;;;;;;24.40;5.30;;;19.50;68.40;;;;;;4934846;29;20119;-71
2024/03/06 07:40:15;;;;;;;22.63;4.78;;;19.30;69.40;;;;;;4934807;29;20126;-72
2024/03/06 07:42:41;;;;;;;21.73;5.03;;;19.10;69.90;;;;;;4936038;29;20063;-74
2024/03/06 07:45:09;;;;;;;22.00;5.63;;;18.20;70.90;;;;;;4936520;29;20036;-74
2024/03/06 07:47:37;;;;;;;16.85;5.28;;;17.70;72.80;;;;;;4935035;29;20031;-75
2024/03/06 07:50:05;;;;;;;21.25;5.45;;;17.50;73.70;;;;;;4935195;29;20023;-76
2024/03/06 07:52:31;;;;;;;19.98;5.45;;;17.30;74.20;;;;;;4938996;29;20508;-85
2024/03/06 07:54:58;;;;;;;20.05;4.72;;;17.10;75.00;;;;;;4935923;29;20067;-86
2024/03/06 07:57:23;;;;;;;23.35;5.82;;;16.80;75.40;;;;;;4937883;29;20040;-85
2024/03/06 07:59:51;;;;;;;21.05;5.10;;;16.70;76.00;;;;;;4940323;29;20038;-85
2024/03/06 08:02:17;;;;;;;22.13;4.78;;;16.70;76.30;;;;;;4941164;29;20091;-91
2024/03/06 08:04:42;;;;;;;28.60;6.78;;;16.80;76.30;;;;;;4948531;29;20438;-91
2024/03/06 08:07:08;;;;;;;27.40;5.28;;;16.90;76.20;;;;;;4952342;29;20046;-92
2024/03/06 08:09:34;;;;;;;27.02;5.65;;;16.90;75.90;;;;;;4960082;29;20091;-92
2024/03/06 08:12:00;;;;;;;28.70;4.47;;;16.90;75.60;;;;;;4956562;29;20112;-92
2024/03/06 08:14:27;;;;;;;19.13;4.32;;;16.90;75.40;;;;;;4953534;29;20035;-93
2024/03/06 08:16:53;;;;;;;19.77;4.68;;;16.80;75.20;;;;;;4950607;29;20044;-93
2024/03/06 08:19:19;;;;;;;16.58;4.03;;;16.70;75.20;;;;;;4950608;29;20036;-85
2024/03/06 08:21:46;;;;;;;20.77;4.63;;;16.60;75.40;;;;;;4943080;29;20117;-86
2024/03/06 08:24:12;;;;;;;20.60;4.90;;;16.50;75.00;;;;;;4941275;29;20028;-90
2024/03/06 08:26:37;;;;;;;23.08;4.68;;;16.50;74.80;;;;;;4948708;29;20039;-85
2024/03/06 08:29:03;;;;;;;17.17;4.13;;;16.50;74.60;;;;;;4938044;29;20554;-70
2024/03/06 08:31:31;;;;;;;20.35;4.25;;;16.50;74.40;;;;;;4937573;29;20078;-73
2024/03/06 08:33:56;;;;;;;20.27;4.30;;;16.50;74.00;;;;;;4937767;29;20043;-73
2024/03/06 08:36:24;;;;;;;17.48;3.20;;;16.50;73.70;;;;;;4937643;29;20484;-74
2024/03/06 08:38:49;;;;;;;17.27;3.40;;;16.30;73.00;;;;;;4937213;29;20042;-73
2024/03/06 08:41:15;;;;;;;16.15;3.83;;;16.30;72.90;;;;;;4937195;29;20487;-73
2024/03/06 08:43:41;;;;;;;19.73;4.90;;;16.30;72.50;;;;;;4937395;29;20032;-74
2024/03/06 08:46:07;;;;;;;17.58;3.90;;;16.20;72.60;;;;;;4937243;29;20431;-72
2024/03/06 08:48:32;;;;;;;21.17;3.80;;;16.20;72.60;;;;;;4937215;29;20106;-73
2024/03/06 08:50:58;;;;;;;22.08;4.45;;;16.20;72.40;;;;;;4937083;29;20050;-73
2024/03/06 08:53:24;;;;;;;18.33;4.22;;;16.10;72.30;;;;;;4937389;29;20035;-74
2024/03/06 08:55:50;;;;;;;18.83;4.20;;;16.10;72.00;;;;;;4936997;29;20043;-74
2024/03/06 08:58:15;;;;;;;21.40;4.38;;;16.10;71.50;;;;;;4937437;29;20111;-73
2024/03/06 09:00:41;;;;;;;19.17;3.83;;;16.20;71.60;;;;;;4937266;29;20392;-73
2024/03/06 09:03:07;;;;;;;17.85;3.70;;;16.30;71.60;;;;;;4937362;29;20059;-72
2024/03/06 09:05:32;;;;;;;16.42;3.67;;;16.30;71.10;;;;;;4937253;29;20059;-74
2024/03/06 09:07:58;;;;;;;15.60;3.88;;;16.30;71.40;;;;;;4936960;29;20086;-75
2024/03/06 09:10:24;;;;;;;16.48;3.78;;;16.40;71.10;;;;;;4937034;29;20083;-74
2024/03/06 09:12:50;;;;;;;18.02;3.72;;;16.50;70.90;;;;;;4936790;29;20070;-73
2024/03/06 09:15:16;;;;;;;14.27;3.17;;;16.50;70.50;;;;;;4937211;29;20032;-75
2024/03/06 09:17:42;;;;;;;20.70;4.00;;;16.30;70.00;;;;;;4936707;29;20060;-73
2024/03/06 09:20:11;;;;;;;16.48;2.97;;;16.20;70.30;;;;;;4935693;29;20028;-74
2024/03/06 09:22:41;;;;;;;15.38;3.60;;;16.00;70.30;;;;;;4936691;29;20519;-73
2024/03/06 09:25:07;;;;;;;23.35;4.32;;;15.90;70.50;;;;;;4936497;29;20036;-73
2024/03/06 09:27:33;;;;;;;17.90;3.10;;;15.80;70.80;;;;;;4937018;29;20040;-74
2024/03/06 09:29:59;;;;;;;18.95;3.67;;;15.80;70.80;;;;;;4936542;29;20036;-74
2024/03/06 09:32:26;;;;;;;21.20;3.80;;;15.80;70.90;;;;;;4936831;29;20405;-74
2024/03/06 09:34:52;;;;;;;21.95;3.95;;;15.70;70.80;;;;;;4936853;29;20083;-73
2024/03/06 09:37:19;;;;;;;17.60;3.28;;;15.80;70.70;;;;;;4936699;29;20087;-74
2024/03/06 09:39:47;;;;;;;18.70;3.42;;;15.80;70.40;;;;;;4936634;29;20043;-74
2024/03/06 09:42:13;;;;;;;15.05;2.88;;;15.80;70.00;;;;;;4936826;29;20492;-74
2024/03/06 09:44:39;;;;;;;19.80;3.38;;;15.70;69.80;;;;;;4936582;29;20032;-74
2024/03/06 09:47:06;;;;;;;16.13;2.88;;;15.60;69.90;;;;;;4936437;29;20419;-74
2024/03/06 09:49:34;;;;;;;17.98;4.53;;;15.60;70.00;;;;;;4936737;29;20480;-73
2024/03/06 09:52:01;;;;;;;22.13;3.75;;;15.60;70.10;;;;;;4936644;29;20044;-73
2024/03/06 09:54:27;;;;;;;23.83;4.63;;;15.60;70.20;;;;;;4936395;29;20115;-74
2024/03/06 09:56:55;;;;;;;15.20;4.30;;;15.60;70.10;;;;;;4936352;29;20547;-74
2024/03/06 09:59:21;;;;;;;22.92;4.15;;;15.60;70.00;;;;;;4936338;29;20036;-73
2024/03/06 10:01:53;;;;;;;22.00;3.97;;;15.70;69.80;;;;;;4936359;29;20140;-74
2024/03/06 10:04:26;;;;;;;18.65;3.42;;;15.60;70.10;;;;;;4936179;29;20399;-74
2024/03/06 10:06:57;;;;;;;17.35;3.65;;;15.60;70.50;;;;;;4936168;29;20070;-74
2024/03/06 10:09:24;;;;;;;22.05;3.78;;;15.40;71.80;;;;;;4935927;29;20081;-73
2024/03/06 10:11:53;;;;;;;23.50;3.88;;;15.30;73.10;;;;;;4935907;29;20062;-73
2024/03/06 10:14:19;;;;;;;18.35;3.33;;;15.20;74.00;;;;;;4936305;29;20511;-73
2024/03/06 10:17:18;;;;;;;23.85;3.63;;;15.10;74.10;;;;;;4935773;29;20043;-74
2024/03/06 10:19:50;;;;;;;15.88;3.83;;;15.10;74.00;;;;;;4936441;29;20043;-73
2024/03/06 10:22:16;;;;;;;18.70;3.05;;;15.20;74.10;;;;;;4936001;29;20047;-73
2024/03/06 10:24:42;;;;;;;16.48;3.22;;;15.20;74.40;;;;;;4935837;29;20388;-74
2024/03/06 10:27:07;;;;;;;19.77;2.90;;;15.30;74.10;;;;;;4935951;29;20318;-74
2024/03/06 10:29:35;;;;;;;14.65;3.08;;;15.30;73.00;;;;;;4934499;29;20031;-73
2024/03/06 10:32:01;;;;;;;14.05;2.95;;;15.40;72.70;;;;;;4935541;29;20043;-73
2024/03/06 10:34:28;;;;;;;18.08;3.47;;;15.50;72.00;;;;;;4934339;29;20534;-73
2024/03/06 10:36:59;;;;;;;15.57;2.70;;;15.60;71.40;;;;;;4935429;29;20039;-73
2024/03/06 10:39:25;;;;;;;14.30;2.63;;;15.70;70.60;;;;;;4935794;29;20086;-73
2024/03/06 10:41:56;;;;;;;13.70;2.53;;;15.70;69.30;;;;;;4935763;29;20436;-74
2024/03/06 10:44:26;;;;;;;16.45;3.10;;;15.80;67.70;;;;;;4935850;29;20054;-72
2024/03/06 10:47:02;;;;;;;12.43;2.60;;;15.90;66.80;;;;;;4935643;29;20044;-73
2024/03/06 10:49:29;;;;;;;16.40;3.03;;;15.90;66.30;;;;;;4934429;29;20512;-73
2024/03/06 10:52:11;;;;;;;12.68;3.17;;;16.00;65.90;;;;;;4935671;29;20051;-74
2024/03/06 10:54:38;;;;;;;12.35;2.78;;;16.00;65.80;;;;;;4935427;29;20488;-74
2024/03/06 10:57:04;;;;;;;12.32;2.20;;;16.20;65.70;;;;;;4939309;29;20078;-72
2024/03/06 10:59:30;;;;;;;12.48;2.58;;;16.30;64.80;;;;;;4935735;29;20063;-75
2024/03/06 11:01:57;;;;;;;15.60;3.25;;;16.40;64.20;;;;;;4935707;29;20035;-74
2024/03/06 11:04:34;;;;;;;13.70;2.38;;;16.40;63.80;;;;;;4935683;29;20110;-74
2024/03/06 11:07:02;;;;;;;12.65;2.58;;;16.40;62.90;;;;;;4928178;29;20396;-73
2024/03/06 11:09:28;;;;;;;13.13;2.42;;;16.30;62.40;;;;;;4935237;29;20042;-74
2024/03/06 11:11:56;;;;;;;17.08;2.92;;;16.40;62.70;;;;;;4935145;29;20055;-73
2024/03/06 11:14:23;;;;;;;11.80;3.03;;;16.40;62.50;;;;;;4935478;29;20031;-75
2024/03/06 11:17:02;;;;;;;12.60;3.10;;;16.40;63.00;;;;;;4935521;29;20047;-74
2024/03/06 11:19:32;;;;;;;15.20;3.25;;;16.40;63.10;;;;;;4935415;29;20480;-73
2024/03/06 11:21:59;;;;;;;16.10;3.20;;;16.40;63.20;;;;;;4935379;29;20032;-74
2024/03/06 11:24:34;;;;;;;13.80;3.08;;;16.30;63.00;;;;;;4934049;29;20031;-75
2024/03/06 11:27:01;;;;;;;18.13;3.17;;;16.40;63.30;;;;;;4935099;29;20039;-75
2024/03/06 11:29:29;;;;;;;13.88;2.67;;;16.40;63.10;;;;;;4935563;29;20032;-74
2024/03/06 11:32:07;;;;;;;19.73;2.85;;;16.50;62.90;;;;;;4935260;29;20131;-75
2024/03/06 11:34:36;;;;;;;18.38;2.92;;;16.50;63.20;;;;;;4935324;29;20031;-74
2024/03/06 11:37:07;;;;;;;19.92;3.10;;;16.50;63.20;;;;;;4933961;29;20051;-74
2024/03/06 11:39:37;;;;;;;11.23;2.72;;;16.50;62.70;;;;;;4935417;29;20032;-73
2024/03/06 11:42:04;;;;;;;15.45;2.80;;;16.50;62.70;;;;;;4935213;29;20063;-74
2024/03/06 11:44:32;;;;;;;18.45;3.10;;;16.60;62.80;;;;;;4938502;29;20039;-76
2024/03/06 11:47:08;;;;;;;14.52;3.45;;;16.50;62.00;;;;;;4938972;29;20120;-73
2024/03/06 11:49:36;;;;;;;16.27;3.20;;;16.40;62.40;;;;;;4938785;29;20027;-74
2024/03/06 11:52:09;;;;;;;16.25;3.13;;;16.50;62.70;;;;;;4938647;29;20055;-73
2024/03/06 11:54:36;;;;;;;16.17;3.58;;;16.70;63.60;;;;;;4938861;29;20106;-74
2024/03/06 11:57:04;;;;;;;13.40;3.47;;;16.70;62.70;;;;;;4938701;29;20032;-74
2024/03/06 11:59:32;;;;;;;14.20;3.08;;;16.70;62.30;;;;;;4938897;29;20077;-72
2024/03/06 12:02:03;;;;;;;16.42;2.80;;;16.70;62.20;;;;;;4938569;29;20039;-73
2024/03/06 12:04:30;;;;;;;23.15;3.53;;;16.70;62.20;;;;;;4938659;29;20075;-73
2024/03/06 12:07:05;;;;;;;14.40;3.03;;;16.70;62.20;;;;;;4938501;29;20032;-72
2024/03/06 12:09:33;;;;;;;14.63;3.08;;;16.70;62.60;;;;;;4938527;29;20448;-74
2024/03/06 12:11:59;;;;;;;14.52;2.88;;;16.60;62.00;;;;;;4938488;29;20496;-74
2024/03/06 12:14:26;;;;;;;18.35;2.88;;;16.50;62.30;;;;;;4938664;29;20451;-74
2024/03/06 12:16:59;;;;;;;17.48;2.70;;;16.40;61.60;;;;;;4938159;29;20086;-74
2024/03/06 12:19:31;;;;;;;15.45;3.22;;;16.60;61.30;;;;;;4938402;29;20035;-74
2024/03/06 12:22:03;;;;;;;12.45;3.05;;;16.80;61.40;;;;;;4938119;29;20040;-73
2024/03/06 12:24:29;;;;;;;15.13;2.90;;;17.10;61.40;;;;;;4938528;29;20035;-73
2024/03/06 12:27:06;;;;;;;13.98;2.85;;;17.30;61.00;;;;;;4938185;29;20051;-72
2024/03/06 12:29:34;;;;;;;12.95;2.97;;;17.30;60.20;;;;;;4938131;29;20042;-73
2024/03/06 12:32:01;;;;;;;15.02;2.85;;;17.30;60.60;;;;;;4938230;29;20050;-75
2024/03/06 12:34:28;;;;;;;15.15;2.50;;;17.20;60.20;;;;;;4938029;29;20040;-75
2024/03/06 12:36:53;;;;;;;10.32;2.35;;;17.20;59.90;;;;;;4937875;29;20102;-73
2024/03/06 12:39:23;;;;;;;11.85;2.40;;;17.00;59.30;;;;;;4936756;29;20032;-74
2024/03/06 12:41:52;;;;;;;13.63;2.38;;;17.00;59.50;;;;;;4936590;29;20043;-73
2024/03/06 12:44:19;;;;;;;9.95;2.33;;;17.10;59.30;;;;;;4937503;29;20115;-74
2024/03/06 12:46:45;;;;;;;13.50;2.70;;;17.20;58.60;;;;;;4937588;29;20031;-73
2024/03/06 12:49:11;;;;;;;11.70;2.58;;;17.20;58.60;;;;;;4937829;29;20086;-74
2024/03/06 12:51:37;;;;;;;13.23;2.60;;;17.20;58.50;;;;;;4936465;29;20107;-74
2024/03/06 12:54:03;;;;;;;13.18;2.50;;;17.00;58.50;;;;;;4937020;29;20047;-75
2024/03/06 12:56:29;;;;;;;24.25;6.45;;;16.90;58.60;;;;;;4936767;29;20036;-75
2024/03/06 12:58:55;;;;;;;12.82;3.00;;;17.00;58.60;;;;;;4937530;29;20389;-74
2024/03/06 13:01:21;;;;;;;11.57;2.83;;;17.10;58.80;;;;;;4937399;29;20090;-74
2024/03/06 13:03:47;;;;;;;16.27;2.58;;;17.10;58.50;;;;;;4937166;29;20032;-74
2024/03/06 13:06:13;;;;;;;10.88;2.60;;;17.10;58.50;;;;;;4937685;29;20064;-73
2024/03/06 13:08:38;;;;;;;11.73;2.63;;;17.20;58.40;;;;;;4936416;29;20146;-74
2024/03/06 13:11:04;;;;;;;10.88;2.47;;;17.20;58.40;;;;;;4937527;29;20043;-75
2024/03/06 13:13:32;;;;;;;13.38;2.85;;;17.20;58.20;;;;;;4937675;29;20028;-75
2024/03/06 13:15:58;;;;;;;12.82;2.80;;;17.30;57.90;;;;;;4937560;29;20035;-75
2024/03/06 13:18:25;;;;;;;14.70;3.30;;;17.40;58.20;;;;;;4937135;29;20502;-74
2024/03/06 13:20:51;;;;;;;13.15;2.63;;;17.40;58.60;;;;;;4937487;29;20111;-74
2024/03/06 13:23:17;;;;;;;12.02;2.58;;;17.50;58.40;;;;;;4937565;29;20519;-74
2024/03/06 13:25:43;;;;;;;11.43;3.13;;;17.50;58.30;;;;;;4937622;29;20068;-73
2024/03/06 13:28:09;;;;;;;10.18;2.10;;;17.50;58.10;;;;;;4937454;29;20515;-73
2024/03/06 13:30:35;;;;;;;9.85;2.85;;;17.40;58.60;;;;;;4936261;29;20032;-74
2024/03/06 13:33:01;;;;;;;14.70;2.80;;;17.30;57.70;;;;;;4937382;29;20485;-74
2024/03/06 13:35:26;;;;;;;11.00;2.40;;;17.20;57.70;;;;;;4937316;29;20036;-74
2024/03/06 13:37:53;;;;;;;16.33;2.67;;;17.10;57.70;;;;;;4936196;29;20036;-74
2024/03/06 13:40:19;;;;;;;16.92;2.95;;;17.00;57.60;;;;;;4937286;29;20412;-74
2024/03/06 13:42:46;;;;;;;16.10;2.55;;;16.90;57.80;;;;;;4937444;29;20095;-75
2024/03/06 13:45:12;;;;;;;11.82;3.03;;;16.80;57.90;;;;;;4935826;29;20063;-75
2024/03/06 13:47:39;;;;;;;15.13;2.75;;;16.90;58.50;;;;;;4937093;29;20151;-75
2024/03/06 13:50:10;;;;;;;12.68;3.13;;;17.20;58.50;;;;;;4937674;29;20492;-75
2024/03/06 13:52:36;;;;;;;14.65;2.80;;;17.50;58.10;;;;;;4942749;29;20055;-74
2024/03/06 13:55:04;;;;;;;11.88;2.20;;;17.60;57.50;;;;;;4959079;29;20040;-74
2024/03/06 13:57:35;;;;;;;13.60;2.67;;;17.70;57.10;;;;;;4948364;29;20392;-74
2024/03/06 14:00:06;;;;;;;13.98;2.63;;;17.80;56.90;;;;;;4937381;29;20035;-74
2024/03/06 14:02:32;;;;;;;11.63;2.40;;;17.90;56.30;;;;;;4937726;29;20067;-74
2024/03/06 14:04:58;;;;;;;11.07;2.33;;;17.90;55.90;;;;;;4936896;29;20047;-74
2024/03/06 14:07:24;;;;;;;14.48;2.83;;;17.80;56.00;;;;;;4936346;29;20036;-75
2024/03/06 14:09:52;;;;;;;15.00;2.60;;;17.80;55.90;;;;;;4936544;29;20040;-75
2024/03/06 14:12:18;;;;;;;10.55;2.63;;;18.00;55.30;;;;;;4936393;29;20051;-74
2024/03/06 14:14:47;;;;;;;15.57;3.35;;;18.10;55.60;;;;;;4936661;29;20263;-74
2024/03/06 14:17:13;;;;;;;15.57;2.70;;;18.20;55.70;;;;;;4936394;29;20052;-75
2024/03/06 14:19:42;;;;;;;11.35;2.20;;;18.00;54.80;;;;;;4935146;29;20123;-74
2024/03/06 14:22:08;;;;;;;15.68;3.33;;;17.70;55.40;;;;;;4936602;29;20148;-73
2024/03/06 14:24:35;;;;;;;11.63;2.50;;;17.40;55.90;;;;;;4936486;29;20040;-75
2024/03/06 14:27:01;;;;;;;10.50;2.70;;;17.20;56.30;;;;;;4936258;29;20481;-75
2024/03/06 14:29:28;;;;;;;11.93;2.42;;;17.00;56.60;;;;;;4936341;29;20043;-76
2024/03/06 14:31:54;;;;;;;14.65;3.03;;;16.90;55.60;;;;;;4936131;29;20058;-74
2024/03/06 14:34:20;;;;;;;13.45;3.05;;;16.80;56.40;;;;;;4936561;29;20032;-74
2024/03/06 14:36:46;;;;;;;14.65;2.67;;;16.70;56.40;;;;;;4936220;29;20039;-74
2024/03/06 14:39:13;;;;;;;13.98;2.75;;;16.70;57.50;;;;;;4936436;29;20047;-75
2024/03/06 14:41:39;;;;;;;13.30;2.40;;;16.60;57.40;;;;;;4936198;29;20107;-74
2024/03/06 14:44:04;;;;;;;11.10;2.83;;;16.60;57.30;;;;;;4936106;29;20082;-75
2024/03/06 14:46:30;;;;;;;13.15;2.75;;;16.50;57.50;;;;;;4936271;29;20035;-74
2024/03/06 14:48:56;;;;;;;12.95;2.30;;;16.50;57.60;;;;;;4935976;29;20389;-73
2024/03/06 14:51:22;;;;;;;17.08;2.42;;;16.60;57.50;;;;;;4936143;29;20048;-73
2024/03/06 14:53:48;;;;;;;9.80;2.00;;;16.70;56.80;;;;;;4935921;29;20031;-75
2024/03/06 14:56:14;;;;;;;7.55;1.90;;;16.80;56.70;;;;;;4935910;29;20031;-75
2024/03/06 14:58:39;;;;;;;8.50;2.13;;;16.80;56.30;;;;;;4935908;29;20043;-75
2024/03/06 15:01:06;;;;;;;10.43;2.10;;;16.90;55.10;;;;;;4935705;29;20051;-74
2024/03/06 15:03:32;;;;;;;9.25;2.40;;;16.70;55.00;;;;;;4935630;29;20031;-75
2024/03/06 15:05:57;;;;;;;15.75;2.80;;;16.60;55.40;;;;;;4935934;29;20031;-74
2024/03/06 15:08:23;;;;;;;9.40;1.92;;;16.60;55.90;;;;;;4935846;29;20068;-74
2024/03/06 15:10:51;;;;;;;9.18;2.05;;;16.50;56.00;;;;;;4935677;29;20065;-73
2024/03/06 15:13:18;;;;;;;10.02;2.10;;;16.40;56.10;;;;;;4935452;29;20123;-74
2024/03/06 15:15:44;;;;;;;11.73;2.50;;;16.40;55.80;;;;;;4935950;29;20035;-74
2024/03/06 15:18:10;;;;;;;11.88;2.63;;;16.50;56.30;;;;;;4934616;29;20074;-74
2024/03/06 15:20:36;;;;;;;10.48;2.50;;;16.50;56.50;;;;;;4935396;29;20036;-75
2024/03/06 15:23:02;;;;;;;13.23;3.88;;;16.60;56.80;;;;;;4935569;29;20040;-74
2024/03/06 15:25:28;;;;;;;11.02;2.30;;;16.70;56.50;;;;;;4935453;29;20067;-75
2024/03/06 15:27:53;;;;;;;13.52;2.58;;;16.70;56.20;;;;;;4935714;29;20066;-74
2024/03/06 15:30:20;;;;;;;16.23;3.38;;;16.70;55.80;;;;;;4935359;29;20535;-74
2024/03/06 15:32:46;;;;;;;15.35;3.95;;;16.70;55.70;;;;;;4935720;29;20044;-74
2024/03/06 15:35:12;;;;;;;11.98;2.22;;;16.80;56.30;;;;;;4935618;29;20036;-75
2024/03/06 15:37:38;;;;;;;10.23;2.20;;;16.80;55.20;;;;;;4935510;29;20043;-73
2024/03/06 15:40:06;;;;;;;9.73;2.20;;;16.80;55.10;;;;;;4935360;29;20373;-73
2024/03/06 15:42:32;;;;;;;7.72;1.75;;;16.90;55.00;;;;;;4935803;29;20055;-74
2024/03/06 15:44:57;;;;;;;10.57;1.98;;;16.90;54.10;;;;;;4935478;29;20046;-74
2024/03/06 15:47:23;;;;;;;11.50;2.40;;;16.90;53.80;;;;;;4935806;29;20032;-75
2024/03/06 15:49:48;;;;;;;9.80;2.13;;;17.00;53.80;;;;;;4934389;29;20135;-75
2024/03/06 15:52:15;;;;;;;10.23;1.92;;;16.90;53.80;;;;;;4935350;29;20043;-74
2024/03/06 15:54:41;;;;;;;11.85;2.35;;;16.90;53.90;;;;;;4935226;29;20067;-74
2024/03/06 15:57:07;;;;;;;9.13;2.05;;;16.90;53.90;;;;;;4935219;29;20047;-74
2024/03/06 15:59:34;;;;;;;10.75;2.05;;;16.80;54.00;;;;;;4935441;29;20107;-75
2024/03/06 16:02:00;;;;;;;11.73;4.25;;;16.80;54.30;;;;;;4935388;29;20039;-74
2024/03/06 16:04:26;;;;;;;9.20;2.33;;;16.80;53.80;;;;;;4935460;29;20048;-74
2024/03/06 16:06:52;;;;;;;6.45;2.17;;;16.80;53.60;;;;;;4935422;29;20413;-73
2024/03/06 16:09:18;;;;;;;8.95;2.33;;;16.70;52.90;;;;;;4934985;29;20043;-75
2024/03/06 16:11:44;;;;;;;10.80;2.05;;;16.70;52.80;;;;;;4935179;29;20420;-73
2024/03/06 16:14:10;;;;;;;11.48;2.28;;;16.70;52.30;;;;;;4935310;29;20476;-75
2024/03/06 16:16:36;;;;;;;10.73;2.10;;;16.60;52.80;;;;;;4935207;29;20119;-74
2024/03/06 16:19:02;;;;;;;14.15;2.53;;;16.50;53.00;;;;;;4945041;29;20082;-72
2024/03/06 16:21:29;;;;;;;10.20;1.58;;;16.50;53.40;;;;;;4944741;29;20094;-73
2024/03/06 16:23:55;;;;;;;10.18;1.90;;;16.40;53.60;;;;;;4936285;29;20024;-73
2024/03/06 16:26:20;;;;;;;8.65;2.85;;;16.30;53.80;;;;;;4935890;29;20086;-75
2024/03/06 16:28:46;;;;;;;9.70;1.90;;;16.20;54.30;;;;;;4935404;29;20496;-75
2024/03/06 16:31:13;;;;;;;11.00;2.50;;;16.10;54.90;;;;;;4938252;29;20175;-74
2024/03/06 16:33:38;;;;;;;14.10;2.60;;;16.00;55.70;;;;;;4938425;29;20036;-74
2024/03/06 16:36:04;;;;;;;8.80;1.98;;;15.90;56.20;;;;;;4938308;29;20035;-74
2024/03/06 16:38:30;;;;;;;9.10;2.15;;;15.80;56.70;;;;;;4938029;29;20036;-74
2024/03/06 16:40:57;;;;;;;10.80;2.60;;;15.80;56.90;;;;;;4938040;29;20032;-72
2024/03/06 16:43:23;;;;;;;11.43;1.80;;;15.70;57.20;;;;;;4938217;29;20039;-73
2024/03/06 16:45:48;;;;;;;13.35;3.15;;;15.60;57.60;;;;;;4938148;29;20039;-74
2024/03/06 16:48:14;;;;;;;12.15;3.28;;;15.50;57.90;;;;;;4938277;29;20032;-74
2024/03/06 16:50:40;;;;;;;9.93;2.25;;;15.50;58.30;;;;;;4937889;29;20118;-74